createdAt,value
2018-02-14T00:01:01.177Z,70.00
2018-02-14T00:03:30.153Z,70.00
2018-02-14T00:05:58.377Z,70.00
2018-02-14T00:08:27.143Z,70.50
2018-02-14T00:10:56.133Z,71.40
2018-02-14T00:13:25.074Z,72.60
2018-02-14T00:15:53.258Z,71.80
2018-02-14T00:18:21.442Z,71.40
2018-02-14T00:20:49.644Z,71.90
2018-02-14T00:23:17.905Z,71.60
2018-02-14T00:25:46.134Z,72.10
2018-02-14T00:28:14.314Z,71.90
2018-02-14T00:30:42.480Z,72.10
2018-02-14T00:33:10.664Z,72.10
2018-02-14T00:35:38.900Z,71.90
2018-02-14T00:38:07.858Z,72.80
2018-02-14T00:40:36.801Z,73.80
2018-02-14T00:43:05.754Z,74.60
2018-02-14T00:45:33.956Z,74.60
2018-02-14T00:48:02.931Z,75.70
2018-02-14T00:50:31.114Z,74.60
2018-02-14T00:52:59.320Z,75.20
2018-02-14T00:55:27.490Z,74.10
2018-02-14T00:57:56.441Z,74.00
2018-02-14T01:00:25.468Z,74.60
2018-02-14T01:02:54.493Z,75.10
2018-02-14T01:05:22.673Z,75.00
2018-02-14T01:07:50.875Z,76.20
2018-02-14T01:10:19.128Z,76.50
2018-02-14T01:12:48.120Z,77.00
2018-02-14T01:15:16.394Z,77.00
2018-02-14T01:17:44.574Z,77.10
2018-02-14T01:20:12.750Z,76.60
2018-02-14T01:22:40.938Z,75.70
2018-02-14T01:25:09.129Z,75.40
2018-02-14T01:27:38.095Z,75.90
2018-02-14T01:30:06.305Z,75.80
2018-02-14T01:32:34.472Z,75.80
2018-02-14T01:35:02.804Z,76.10
2018-02-14T01:37:30.977Z,75.90
2018-02-14T01:39:59.204Z,76.70
2018-02-14T01:42:27.424Z,77.10
2018-02-14T01:44:56.411Z,78.30
2018-02-14T01:47:24.647Z,78.30
2018-02-14T01:49:53.617Z,78.90
2018-02-14T01:52:21.821Z,78.70
2018-02-14T01:54:50.040Z,78.80
2018-02-14T01:57:18.973Z,78.90
2018-02-14T01:59:47.220Z,79.50
2018-02-14T02:02:15.388Z,79.60
2018-02-14T02:04:43.557Z,80.20
2018-02-14T02:07:11.793Z,79.30
2018-02-14T02:09:39.976Z,80.00
2018-02-14T02:12:08.152Z,79.30
2018-02-14T02:14:36.362Z,78.90
2018-02-14T02:17:05.380Z,78.40
2018-02-14T02:19:33.626Z,79.10
2018-02-14T02:22:02.602Z,78.60
2018-02-14T02:24:31.574Z,78.80
2018-02-14T02:26:59.744Z,79.40
2018-02-14T02:29:28.093Z,79.40
2018-02-14T02:31:56.345Z,79.60
2018-02-14T02:34:25.298Z,78.90
2018-02-14T02:36:53.495Z,78.90
2018-02-14T02:39:34.365Z,79.30
2018-02-14T02:42:04.096Z,78.50
2018-02-14T02:44:33.224Z,78.00
2018-02-14T02:47:01.439Z,78.00
2018-02-14T02:49:29.637Z,77.80
2018-02-14T02:51:58.597Z,77.40
2018-02-14T02:54:26.772Z,77.40
2018-02-14T02:56:54.980Z,77.10
2018-02-14T02:59:24.353Z,77.60
2018-02-14T03:01:52.558Z,77.50
2018-02-14T03:04:20.760Z,77.30
2018-02-14T03:06:48.949Z,76.80
2018-02-14T03:09:17.181Z,77.10
2018-02-14T03:11:46.141Z,77.20
2018-02-14T03:14:14.392Z,77.10
2018-02-14T03:16:42.596Z,77.20
2018-02-14T03:19:10.901Z,77.10
2018-02-14T03:21:39.137Z,77.10
2018-02-14T03:24:07.313Z,77.10
2018-02-14T03:26:35.483Z,77.20
2018-02-14T03:29:03.673Z,77.70
2018-02-14T03:31:31.848Z,77.50
2018-02-14T03:34:00.055Z,77.70
2018-02-14T03:36:29.079Z,78.10
2018-02-14T03:38:57.531Z,77.40
2018-02-14T03:41:25.696Z,77.30
2018-02-14T03:43:53.902Z,77.20
2018-02-14T03:46:22.864Z,77.10
2018-02-14T03:48:51.056Z,77.00
2018-02-14T03:51:19.280Z,76.40
2018-02-14T03:53:47.466Z,76.30
2018-02-14T03:56:15.652Z,76.40
2018-02-14T03:58:43.845Z,76.30
2018-02-14T04:01:12.054Z,76.40
2018-02-14T04:03:40.258Z,76.00
2018-02-14T04:06:08.558Z,76.10
2018-02-14T04:08:36.780Z,76.30
2018-02-14T04:11:05.752Z,76.30
2018-02-14T04:13:34.136Z,76.30
2018-02-14T04:16:02.448Z,76.30
2018-02-14T04:18:30.644Z,76.50
2018-02-14T04:20:59.421Z,76.70
2018-02-14T04:23:27.610Z,76.50
2018-02-14T04:25:55.802Z,76.70
2018-02-14T04:28:24.004Z,77.60
2018-02-14T04:30:52.755Z,76.70
2018-02-14T04:33:22.085Z,76.60
2018-02-14T04:35:50.342Z,76.70
2018-02-14T04:38:18.569Z,76.50
2018-02-14T04:40:46.765Z,76.60
2018-02-14T04:43:14.983Z,76.50
2018-02-14T04:45:43.215Z,76.30
2018-02-14T04:48:11.391Z,75.70
2018-02-14T04:50:39.653Z,76.40
2018-02-14T04:53:07.839Z,76.50
2018-02-14T04:55:36.051Z,76.30
2018-02-14T04:58:04.249Z,76.50
2018-02-14T05:00:32.496Z,76.60
2018-02-14T05:03:00.681Z,76.60
2018-02-14T05:05:28.909Z,76.70
2018-02-14T05:07:57.091Z,77.30
2018-02-14T05:10:25.291Z,76.80
2018-02-14T05:12:53.517Z,77.00
2018-02-14T05:15:22.471Z,77.10
2018-02-14T05:17:50.667Z,77.00
2018-02-14T05:20:18.873Z,77.30
2018-02-14T05:22:47.808Z,77.20
2018-02-14T05:25:16.023Z,77.20
2018-02-14T05:27:44.992Z,78.30
2018-02-14T05:30:13.971Z,79.20
2018-02-14T05:32:42.182Z,78.50
2018-02-14T05:35:11.120Z,78.50
2018-02-14T05:37:39.414Z,78.40
2018-02-14T05:40:08.346Z,78.30
2018-02-14T05:42:37.312Z,78.00
2018-02-14T05:45:05.490Z,77.90
2018-02-14T05:47:33.683Z,77.90
2018-02-14T05:50:02.663Z,77.50
2018-02-14T05:52:31.770Z,77.50
2018-02-14T05:54:59.996Z,77.40
2018-02-14T05:57:28.278Z,78.80
2018-02-14T05:59:56.447Z,77.60
2018-02-14T06:02:24.642Z,77.70
2018-02-14T06:04:52.820Z,77.70
2018-02-14T06:07:21.002Z,77.60
2018-02-14T06:09:50.716Z,77.50
2018-02-14T06:12:18.902Z,77.50
2018-02-14T06:14:47.126Z,77.50
2018-02-14T06:17:15.297Z,77.50
2018-02-14T06:19:43.464Z,78.20
2018-02-14T06:22:11.698Z,77.80
2018-02-14T06:24:39.898Z,77.90
2018-02-14T06:27:08.858Z,78.30
2018-02-14T06:29:37.032Z,78.30
2018-02-14T06:32:05.298Z,78.30
2018-02-14T06:34:33.530Z,78.80
2018-02-14T06:37:02.520Z,78.80
2018-02-14T06:39:31.489Z,78.60
2018-02-14T06:42:01.164Z,78.80
2018-02-14T06:44:29.417Z,78.70
2018-02-14T06:46:57.710Z,78.50
2018-02-14T06:49:26.597Z,78.90
2018-02-14T06:51:54.799Z,78.90
2018-02-14T06:54:23.015Z,79.30
2018-02-14T06:56:51.233Z,79.40
2018-02-14T06:59:19.522Z,79.60
2018-02-14T07:01:49.219Z,79.80
2018-02-14T07:04:17.443Z,79.80
2018-02-14T07:06:46.431Z,81.30
2018-02-14T07:09:14.780Z,80.40
2018-02-14T07:11:43.001Z,81.10
2018-02-14T07:14:11.943Z,81.10
2018-02-14T07:16:40.147Z,80.50
2018-02-14T07:19:09.186Z,80.00
2018-02-14T07:21:37.435Z,80.00
2018-02-14T07:24:05.636Z,79.70
2018-02-14T07:26:34.606Z,79.50
2018-02-14T07:29:02.929Z,79.40
2018-02-14T07:31:30.051Z,79.10
2018-02-14T07:33:56.795Z,78.60
2018-02-14T07:36:23.426Z,77.90
2018-02-14T07:38:50.036Z,77.80
2018-02-14T07:41:16.868Z,77.50
2018-02-14T07:43:43.503Z,77.10
2018-02-14T07:46:10.189Z,76.70
2018-02-14T07:48:36.752Z,77.10
2018-02-14T07:51:04.116Z,76.70
2018-02-14T07:53:31.514Z,76.90
2018-02-14T07:55:58.125Z,76.90
2018-02-14T07:58:24.778Z,76.10
2018-02-14T08:00:51.387Z,75.60
2018-02-14T08:03:18.084Z,75.70
2018-02-14T08:05:44.766Z,75.50
2018-02-14T08:08:11.408Z,75.50
2018-02-14T08:10:38.111Z,75.40
2018-02-14T08:13:05.544Z,75.20
2018-02-14T08:15:32.474Z,75.10
2018-02-14T08:17:59.130Z,74.60
2018-02-14T08:20:25.724Z,74.30
2018-02-14T08:22:53.682Z,73.80
2018-02-14T08:25:20.411Z,73.70
2018-02-14T08:27:47.905Z,74.00
2018-02-14T08:30:15.222Z,75.20
2018-02-14T08:32:41.878Z,75.20
2018-02-14T08:35:09.924Z,73.10
2018-02-14T08:37:36.547Z,73.10
2018-02-14T08:40:03.283Z,73.80
2018-02-14T08:42:29.862Z,73.30
2018-02-14T08:44:57.163Z,72.40
2018-02-14T08:47:23.707Z,72.30
2018-02-14T08:49:50.305Z,73.00
2018-02-14T08:52:17.603Z,72.80
2018-02-14T08:54:44.127Z,72.50
2018-02-14T08:57:10.679Z,72.40
2018-02-14T08:59:37.235Z,72.20
2018-02-14T09:02:03.917Z,72.30
2018-02-14T09:04:30.550Z,72.00
2018-02-14T09:06:57.809Z,70.80
2018-02-14T09:09:25.063Z,71.20
2018-02-14T09:11:51.617Z,71.90
2018-02-14T09:14:18.926Z,70.30
2018-02-14T09:16:46.304Z,69.80
2018-02-14T09:19:12.844Z,69.80
2018-02-14T09:21:40.140Z,70.10
2018-02-14T09:24:06.718Z,70.10
2018-02-14T09:26:33.342Z,70.30
2018-02-14T09:28:59.856Z,70.00
2018-02-14T09:31:26.405Z,69.80
2018-02-14T09:33:52.955Z,70.70
2018-02-14T09:36:19.530Z,69.50
2018-02-14T09:38:46.848Z,69.20
2018-02-14T09:41:14.165Z,70.10
2018-02-14T09:43:40.664Z,70.10
2018-02-14T09:46:08.023Z,69.80
2018-02-14T09:48:35.340Z,69.00
2018-02-14T09:51:01.883Z,68.90
2018-02-14T09:53:28.394Z,69.60
2018-02-14T09:55:54.943Z,69.50
2018-02-14T09:58:21.551Z,69.90
2018-02-14T10:00:48.166Z,68.70
2018-02-14T10:03:15.486Z,70.60
2018-02-14T10:05:43.565Z,70.60
2018-02-14T10:08:10.095Z,70.50
2018-02-14T10:10:37.488Z,69.00
2018-02-14T10:13:04.124Z,69.00
2018-02-14T10:15:31.484Z,68.10
2018-02-14T10:17:58.755Z,68.60
2018-02-14T10:20:25.296Z,68.60
2018-02-14T10:22:52.625Z,69.20
2018-02-14T10:25:19.876Z,69.40
2018-02-14T10:27:47.225Z,69.40
2018-02-14T10:30:14.515Z,68.90
2018-02-14T10:32:41.065Z,68.90
2018-02-14T10:35:07.663Z,68.40
2018-02-14T10:37:35.272Z,68.10
2018-02-14T10:40:01.873Z,68.10
2018-02-14T10:42:28.401Z,67.70
2018-02-14T10:44:55.675Z,67.10
2018-02-14T10:47:22.271Z,67.10
2018-02-14T10:49:48.981Z,67.20
2018-02-14T10:52:15.638Z,67.80
2018-02-14T10:54:42.145Z,66.70
2018-02-14T10:57:09.360Z,67.70
2018-02-14T10:59:36.644Z,66.30
2018-02-14T11:02:09.320Z,66.20
2018-02-14T11:04:41.957Z,66.30
2018-02-14T11:07:19.825Z,66.40
2018-02-14T11:09:46.442Z,66.40
2018-02-14T11:12:14.133Z,66.60
2018-02-14T11:14:40.766Z,66.50
2018-02-14T11:17:08.384Z,66.30
2018-02-14T11:19:35.088Z,66.20
2018-02-14T11:22:02.490Z,65.80
2018-02-14T11:24:29.217Z,65.60
2018-02-14T11:26:55.950Z,65.40
2018-02-14T11:29:22.554Z,65.70
2018-02-14T11:31:49.217Z,64.90
2018-02-14T11:34:16.633Z,64.60
2018-02-14T11:36:44.897Z,63.80
2018-02-14T11:39:11.687Z,63.80
2018-02-14T11:41:39.160Z,64.50
2018-02-14T11:44:05.807Z,64.40
2018-02-14T11:46:32.537Z,64.20
2018-02-14T11:48:59.926Z,62.90
2018-02-14T11:51:26.569Z,62.90
2018-02-14T11:53:53.199Z,63.80
2018-02-14T11:56:19.877Z,62.30
2018-02-14T11:58:46.514Z,62.50
2018-02-14T12:01:13.195Z,63.50
2018-02-14T12:03:39.825Z,62.30
2018-02-14T12:06:07.321Z,63.00
2018-02-14T12:08:34.009Z,63.00
2018-02-14T12:11:00.676Z,62.90
2018-02-14T12:13:27.994Z,64.70
2018-02-14T12:15:54.505Z,63.90
2018-02-14T12:18:21.073Z,62.10
2018-02-14T12:20:48.413Z,62.20
2018-02-14T12:23:15.000Z,62.20
2018-02-14T12:25:41.625Z,62.20
2018-02-14T12:28:08.988Z,62.00
2018-02-14T12:30:35.626Z,62.00
2018-02-14T12:33:02.243Z,62.10
2018-02-14T12:35:29.718Z,61.60
2018-02-14T12:37:56.520Z,61.60
2018-02-14T12:40:23.158Z,61.30
2018-02-14T12:42:51.246Z,61.10
2018-02-14T12:45:17.782Z,61.10
2018-02-14T12:47:44.345Z,62.30
2018-02-14T12:50:10.862Z,64.40
2018-02-14T12:52:37.681Z,61.50
2018-02-14T12:55:04.312Z,60.50
2018-02-14T12:57:30.834Z,61.10
2018-02-14T12:59:57.345Z,60.00
2018-02-14T13:02:24.882Z,61.10
2018-02-14T13:04:52.174Z,63.40
2018-02-14T13:07:19.438Z,62.40
2018-02-14T13:09:45.986Z,62.40
2018-02-14T13:12:12.652Z,62.50
2018-02-14T13:14:39.278Z,61.50
2018-02-14T13:17:06.636Z,63.30
2018-02-14T13:19:33.449Z,63.20
2018-02-14T13:21:59.958Z,62.10
2018-02-14T13:24:27.296Z,63.70
2018-02-14T13:26:54.603Z,63.80
2018-02-14T13:29:21.136Z,63.70
2018-02-14T13:31:47.680Z,62.90
2018-02-14T13:34:14.950Z,63.40
2018-02-14T13:36:43.100Z,64.30
2018-02-14T13:39:09.808Z,64.10
2018-02-14T13:41:36.451Z,64.30
2018-02-14T13:44:03.108Z,65.00
2018-02-14T13:46:29.742Z,63.50
2018-02-14T13:49:05.779Z,62.70
2018-02-14T13:51:33.215Z,65.30
2018-02-14T13:53:59.868Z,65.40
2018-02-14T13:56:26.466Z,63.80
2018-02-14T13:58:53.025Z,63.80
2018-02-14T14:01:19.557Z,63.80
2018-02-14T14:03:46.126Z,63.70
2018-02-14T14:06:12.644Z,62.60
2018-02-14T14:08:39.211Z,63.80
2018-02-14T14:11:06.519Z,64.60
2018-02-14T14:13:33.145Z,64.50
2018-02-14T14:15:59.778Z,62.90
2018-02-14T14:18:26.370Z,64.30
2018-02-14T14:20:53.833Z,64.60
2018-02-14T14:23:20.465Z,64.50
2018-02-14T14:25:47.827Z,64.30
2018-02-14T14:28:15.154Z,64.00
2018-02-14T14:30:41.819Z,64.00
2018-02-14T14:33:09.186Z,63.70
2018-02-14T14:35:35.825Z,63.70
2018-02-14T14:38:02.523Z,64.70
2018-02-14T14:40:29.299Z,64.50
2018-02-14T14:42:56.671Z,64.00
2018-02-14T14:45:23.318Z,64.00
2018-02-14T14:47:49.879Z,64.00
2018-02-14T14:50:16.485Z,64.40
2018-02-14T14:52:43.161Z,65.00
2018-02-14T14:55:09.845Z,65.40
2018-02-14T14:57:52.134Z,65.40
2018-02-14T15:00:19.803Z,65.90
2018-02-14T15:02:46.556Z,65.80
2018-02-14T15:05:13.943Z,65.10
2018-02-14T15:07:40.556Z,65.00
2018-02-14T15:10:07.274Z,65.40
2018-02-14T15:12:35.621Z,65.30
2018-02-14T15:15:02.310Z,65.30
2018-02-14T15:17:29.616Z,66.10
2018-02-14T15:19:56.184Z,66.10
2018-02-14T15:22:22.888Z,66.10
2018-02-14T15:24:49.494Z,66.20
2018-02-14T15:27:16.137Z,67.00
2018-02-14T15:29:42.790Z,66.40
2018-02-14T15:32:10.928Z,66.40
2018-02-14T15:34:37.617Z,66.30
2018-02-14T15:37:05.113Z,66.50
2018-02-14T15:39:32.498Z,66.70
2018-02-14T15:41:59.878Z,66.20
2018-02-14T15:44:26.410Z,66.20
2018-02-14T15:46:52.941Z,66.60
2018-02-14T15:49:19.483Z,66.50
2018-02-14T15:51:46.005Z,67.00
2018-02-14T15:54:13.295Z,67.50
2018-02-14T15:56:39.839Z,67.30
2018-02-14T15:59:06.349Z,67.70
2018-02-14T16:01:32.957Z,66.40
2018-02-14T16:03:59.496Z,67.90
2018-02-14T16:06:26.095Z,67.40
2018-02-14T16:08:52.653Z,67.00
2018-02-14T16:11:19.307Z,66.80
2018-02-14T16:13:45.851Z,67.30
2018-02-14T16:16:12.406Z,67.60
2018-02-14T16:18:39.029Z,67.50
2018-02-14T16:21:06.603Z,67.60
2018-02-14T16:23:33.245Z,67.50
2018-02-14T16:25:59.877Z,67.90
2018-02-14T16:28:27.177Z,68.70
2018-02-14T16:30:53.747Z,68.70
2018-02-14T16:33:20.352Z,68.10
2018-02-14T16:35:47.718Z,68.80
2018-02-14T16:38:14.382Z,69.10
2018-02-14T16:43:42.127Z,69.00
2018-02-14T16:46:14.247Z,69.00
2018-02-14T16:48:42.518Z,69.00
2018-02-14T16:51:10.719Z,68.80
2018-02-14T16:53:38.962Z,69.10
2018-02-14T16:56:07.215Z,68.70
2018-02-14T16:58:36.206Z,68.90
2018-02-14T17:01:05.274Z,69.40
2018-02-14T17:03:33.619Z,69.30
2018-02-14T17:06:01.838Z,68.80
2018-02-14T17:08:30.246Z,69.80
2018-02-14T17:11:09.969Z,69.60
2018-02-14T17:13:38.227Z,69.60
2018-02-14T17:16:06.832Z,69.70
2018-02-14T17:18:37.210Z,69.80
2018-02-14T17:21:06.561Z,69.70
2018-02-14T17:23:34.760Z,70.30
2018-02-14T17:26:02.996Z,70.50
2018-02-14T17:28:31.335Z,70.00
2018-02-14T17:31:00.123Z,70.30
2018-02-14T17:33:28.647Z,70.30
2018-02-14T17:35:57.016Z,70.30
2018-02-14T17:38:25.418Z,70.20
2018-02-14T17:40:53.674Z,70.40
2018-02-14T17:43:21.899Z,70.30
2018-02-14T17:45:50.106Z,70.30
2018-02-14T17:48:18.307Z,70.40
2018-02-14T17:50:46.513Z,70.60
2018-02-14T17:53:14.781Z,70.70
2018-02-14T17:55:43.102Z,70.80
2018-02-14T17:58:11.700Z,71.40
2018-02-14T18:00:40.760Z,71.00
2018-02-14T18:03:09.044Z,70.70
2018-02-14T18:05:37.233Z,71.60
2018-02-14T18:08:05.460Z,71.10
2018-02-14T18:10:33.679Z,71.50
2018-02-14T18:13:01.871Z,72.30
2018-02-14T18:15:30.103Z,71.60
2018-02-14T18:17:59.090Z,71.20
2018-02-14T18:20:27.315Z,71.20
2018-02-14T18:22:55.587Z,70.80
2018-02-14T18:25:23.849Z,71.80
2018-02-14T18:27:52.075Z,71.20
2018-02-14T18:30:20.329Z,70.90
2018-02-14T18:32:48.807Z,71.10
2018-02-14T18:35:17.001Z,70.70
2018-02-14T18:37:45.234Z,71.00
2018-02-14T18:40:13.520Z,71.30
2018-02-14T18:42:41.790Z,70.90
2018-02-14T18:45:10.001Z,71.10
2018-02-14T18:47:38.596Z,71.10
2018-02-14T18:50:06.985Z,70.90
2018-02-14T18:52:36.000Z,71.60
2018-02-14T18:55:04.970Z,71.30
2018-02-14T18:57:33.169Z,72.10
2018-02-14T19:00:01.493Z,71.50
2018-02-14T19:02:29.794Z,71.00
2018-02-14T19:04:59.091Z,70.90
2018-02-14T19:07:27.338Z,71.40
2018-02-14T19:09:55.563Z,71.90
2018-02-14T19:12:23.898Z,71.60
2018-02-14T19:14:52.132Z,71.50
2018-02-14T19:17:20.353Z,71.80
2018-02-14T19:19:48.587Z,72.10
2018-02-14T19:22:16.788Z,71.60
2018-02-14T19:24:45.364Z,71.50
2018-02-14T19:27:13.674Z,71.80
2018-02-14T19:29:41.945Z,71.60
2018-02-14T19:32:10.152Z,72.00
2018-02-14T19:34:38.341Z,71.80
2018-02-14T19:37:07.485Z,71.80
2018-02-14T19:39:35.678Z,71.80
2018-02-14T19:42:03.895Z,71.70
2018-02-14T19:44:32.861Z,71.80
2018-02-14T19:47:01.083Z,71.80
2018-02-14T19:49:30.877Z,71.70
2018-02-14T19:51:59.221Z,71.60
2018-02-14T19:54:27.583Z,72.40
2018-02-14T19:56:55.810Z,72.00
2018-02-14T19:59:24.836Z,72.60
2018-02-14T20:01:53.045Z,72.60
2018-02-14T20:04:21.270Z,72.00
2018-02-14T20:06:50.235Z,73.90
2018-02-14T20:09:18.443Z,73.20
2018-02-14T20:11:55.446Z,72.10
2018-02-14T20:14:24.601Z,72.20
2018-02-14T20:16:52.801Z,72.20
2018-02-14T20:19:21.764Z,72.50
2018-02-14T20:21:50.031Z,72.30
2018-02-14T20:24:18.261Z,72.40
2018-02-14T20:26:46.488Z,72.90
2018-02-14T20:29:14.698Z,72.80
2018-02-14T20:31:43.671Z,72.30
2018-02-14T20:34:11.964Z,72.30
2018-02-14T20:36:40.960Z,72.60
2018-02-14T20:39:11.235Z,72.50
2018-02-14T20:41:39.473Z,72.40
2018-02-14T20:44:09.964Z,71.80
2018-02-14T20:46:38.185Z,71.80
2018-02-14T20:49:06.411Z,72.00
2018-02-14T20:51:34.634Z,71.80
2018-02-14T20:54:03.602Z,72.70
2018-02-14T20:56:32.148Z,73.50
2018-02-14T20:59:00.371Z,73.20
2018-02-14T21:01:29.378Z,76.60
2018-02-14T21:03:58.347Z,77.50
2018-02-14T21:06:26.583Z,77.50
2018-02-14T21:08:54.862Z,78.90
2018-02-14T21:11:23.094Z,78.50
2018-02-14T21:13:52.108Z,80.50
2018-02-14T21:16:20.339Z,80.50
2018-02-14T21:18:48.718Z,80.80
2018-02-14T21:21:17.048Z,81.10
2018-02-14T21:23:45.253Z,82.50
2018-02-14T21:26:13.506Z,81.20
2018-02-14T21:28:42.006Z,80.80
2018-02-14T21:31:10.207Z,81.50
2018-02-14T21:33:38.400Z,81.20
2018-02-14T21:36:07.553Z,80.80
2018-02-14T21:38:35.816Z,80.80
2018-02-14T21:41:04.085Z,80.80
2018-02-14T21:43:32.322Z,80.10
2018-02-14T21:46:01.327Z,80.30
2018-02-14T21:48:30.325Z,80.20
2018-02-14T21:50:58.558Z,80.20
2018-02-14T21:53:27.067Z,80.70
2018-02-14T21:55:55.259Z,81.00
2018-02-14T21:58:24.219Z,81.10
2018-02-14T22:00:52.414Z,81.10
2018-02-14T22:03:21.423Z,81.20
2018-02-14T22:05:50.388Z,82.50
2018-02-14T22:08:18.590Z,82.40
2018-02-14T22:10:47.564Z,82.90
2018-02-14T22:13:18.034Z,84.00
2018-02-14T22:15:46.353Z,84.00
2018-02-14T22:18:14.710Z,84.20
2018-02-14T22:20:42.914Z,84.00
2018-02-14T22:23:12.688Z,83.10
2018-02-14T22:25:41.651Z,83.30
2018-02-14T22:28:10.632Z,83.00
2018-02-14T22:30:38.832Z,82.90
2018-02-14T22:33:07.120Z,83.20
2018-02-14T22:35:35.344Z,83.20
2018-02-14T22:38:03.598Z,83.80
2018-02-14T22:40:31.804Z,84.60
2018-02-14T22:43:00.000Z,84.30
2018-02-14T22:45:28.304Z,84.60
2018-02-14T22:47:56.518Z,85.10
2018-02-14T22:50:24.750Z,85.10
2018-02-14T22:52:53.011Z,86.20
2018-02-14T22:55:21.978Z,87.00
2018-02-14T22:57:51.686Z,87.30
2018-02-14T23:00:21.716Z,87.30
2018-02-14T23:02:50.767Z,87.30
2018-02-14T23:05:18.975Z,88.30
2018-02-14T23:07:47.187Z,87.80
2018-02-14T23:10:16.917Z,88.10
2018-02-14T23:12:45.150Z,88.10
2018-02-14T23:15:13.346Z,89.30
2018-02-14T23:17:42.419Z,89.20
2018-02-14T23:20:10.623Z,89.20
2018-02-14T23:22:39.580Z,90.00
2018-02-14T23:25:07.845Z,90.00
2018-02-14T23:27:36.067Z,90.20
2018-02-14T23:30:05.027Z,90.30
2018-02-14T23:32:34.013Z,90.50
2018-02-14T23:35:08.218Z,90.50
2018-02-14T23:37:36.527Z,90.70
2018-02-14T23:40:04.713Z,90.70
2018-02-14T23:42:33.688Z,90.60
2018-02-14T23:45:03.375Z,91.00
2018-02-14T23:47:31.559Z,90.90
2018-02-14T23:49:59.786Z,91.00
2018-02-14T23:52:28.741Z,91.20
2018-02-14T23:54:56.924Z,91.20
2018-02-14T23:57:25.106Z,91.30
2018-02-14T23:59:54.080Z,91.50
